sensor_id;sensor_type;location;lat;lon;timestamp;P1;durP1;ratioP1;P2;durP2;ratioP2
44774;SDS011;31340;51.402;0.016;2023-06-22T00:00:12;9.00;;;5.50;;
44774;SDS011;31340;51.402;0.016;2023-06-22T00:02:40;10.32;;;6.10;;
44774;SDS011;31340;51.402;0.016;2023-06-22T00:05:08;12.48;;;6.55;;
44774;SDS011;31340;51.402;0.016;2023-06-22T00:07:35;12.55;;;7.20;;
44774;SDS011;31340;51.402;0.016;2023-06-22T00:10:03;11.05;;;6.85;;
44774;SDS011;31340;51.402;0.016;2023-06-22T00:12:31;11.80;;;6.15;;
44774;SDS011;31340;51.402;0.016;2023-06-22T00:14:59;14.00;;;6.28;;
44774;SDS011;31340;51.402;0.016;2023-06-22T00:17:27;10.00;;;6.35;;
44774;SDS011;31340;51.402;0.016;2023-06-22T00:19:55;13.93;;;7.32;;
44774;SDS011;31340;51.402;0.016;2023-06-22T00:22:25;11.00;;;6.22;;
44774;SDS011;31340;51.402;0.016;2023-06-22T00:24:56;10.65;;;6.60;;
44774;SDS011;31340;51.402;0.016;2023-06-22T00:27:24;10.90;;;6.10;;
44774;SDS011;31340;51.402;0.016;2023-06-22T00:29:52;11.75;;;5.78;;
44774;SDS011;31340;51.402;0.016;2023-06-22T00:32:21;14.70;;;6.75;;
44774;SDS011;31340;51.402;0.016;2023-06-22T00:34:48;14.50;;;7.05;;
44774;SDS011;31340;51.402;0.016;2023-06-22T00:37:17;10.60;;;7.10;;
44774;SDS011;31340;51.402;0.016;2023-06-22T00:39:45;12.98;;;6.72;;
44774;SDS011;31340;51.402;0.016;2023-06-22T00:42:13;9.80;;;6.80;;
44774;SDS011;31340;51.402;0.016;2023-06-22T00:44:41;12.27;;;6.93;;
44774;SDS011;31340;51.402;0.016;2023-06-22T00:47:08;10.20;;;6.78;;
44774;SDS011;31340;51.402;0.016;2023-06-22T00:49:36;12.20;;;6.60;;
44774;SDS011;31340;51.402;0.016;2023-06-22T00:52:04;11.13;;;6.43;;
44774;SDS011;31340;51.402;0.016;2023-06-22T00:54:36;10.27;;;6.20;;
44774;SDS011;31340;51.402;0.016;2023-06-22T00:57:04;8.45;;;6.18;;
44774;SDS011;31340;51.402;0.016;2023-06-22T00:59:32;11.95;;;6.88;;
44774;SDS011;31340;51.402;0.016;2023-06-22T01:02:00;12.35;;;6.88;;
44774;SDS011;31340;51.402;0.016;2023-06-22T01:04:34;10.73;;;6.50;;
44774;SDS011;31340;51.402;0.016;2023-06-22T01:07:06;10.77;;;7.20;;
44774;SDS011;31340;51.402;0.016;2023-06-22T01:09:46;13.30;;;7.13;;
44774;SDS011;31340;51.402;0.016;2023-06-22T01:12:25;14.43;;;7.50;;
44774;SDS011;31340;51.402;0.016;2023-06-22T01:15:05;13.25;;;6.75;;
44774;SDS011;31340;51.402;0.016;2023-06-22T01:17:37;12.63;;;7.28;;
44774;SDS011;31340;51.402;0.016;2023-06-22T01:20:10;13.52;;;7.45;;
44774;SDS011;31340;51.402;0.016;2023-06-22T01:22:57;11.23;;;6.68;;
44774;SDS011;31340;51.402;0.016;2023-06-22T01:25:45;15.10;;;7.38;;
44774;SDS011;31340;51.402;0.016;2023-06-22T01:28:31;12.57;;;7.80;;
44774;SDS011;31340;51.402;0.016;2023-06-22T01:31:10;13.55;;;6.32;;
44774;SDS011;31340;51.402;0.016;2023-06-22T01:33:42;12.70;;;7.13;;
44774;SDS011;31340;51.402;0.016;2023-06-22T01:36:13;12.38;;;7.32;;
44774;SDS011;31340;51.402;0.016;2023-06-22T01:38:41;11.90;;;7.38;;
44774;SDS011;31340;51.402;0.016;2023-06-22T01:41:11;13.98;;;6.70;;
44774;SDS011;31340;51.402;0.016;2023-06-22T01:43:39;13.15;;;7.85;;
44774;SDS011;31340;51.402;0.016;2023-06-22T01:46:07;11.23;;;6.20;;
44774;SDS011;31340;51.402;0.016;2023-06-22T01:48:36;10.18;;;7.03;;
44774;SDS011;31340;51.402;0.016;2023-06-22T01:51:04;11.77;;;6.78;;
44774;SDS011;31340;51.402;0.016;2023-06-22T01:53:32;11.13;;;7.85;;
44774;SDS011;31340;51.402;0.016;2023-06-22T01:56:00;12.27;;;6.75;;
44774;SDS011;31340;51.402;0.016;2023-06-22T01:58:29;13.20;;;7.20;;
44774;SDS011;31340;51.402;0.016;2023-06-22T02:01:11;14.52;;;7.40;;
44774;SDS011;31340;51.402;0.016;2023-06-22T02:03:41;11.05;;;7.25;;
44774;SDS011;31340;51.402;0.016;2023-06-22T02:06:21;14.27;;;8.15;;
44774;SDS011;31340;51.402;0.016;2023-06-22T02:08:55;14.13;;;8.60;;
44774;SDS011;31340;51.402;0.016;2023-06-22T02:11:27;18.77;;;8.30;;
44774;SDS011;31340;51.402;0.016;2023-06-22T02:13:57;13.52;;;7.35;;
44774;SDS011;31340;51.402;0.016;2023-06-22T02:16:25;15.70;;;7.88;;
44774;SDS011;31340;51.402;0.016;2023-06-22T02:18:57;14.43;;;7.53;;
44774;SDS011;31340;51.402;0.016;2023-06-22T02:21:33;11.18;;;6.57;;
44774;SDS011;31340;51.402;0.016;2023-06-22T02:24:01;11.30;;;7.10;;
44774;SDS011;31340;51.402;0.016;2023-06-22T02:26:30;13.40;;;6.95;;
44774;SDS011;31340;51.402;0.016;2023-06-22T02:29:01;14.05;;;8.32;;
44774;SDS011;31340;51.402;0.016;2023-06-22T02:31:29;10.10;;;7.00;;
44774;SDS011;31340;51.402;0.016;2023-06-22T02:33:58;11.60;;;6.93;;
44774;SDS011;31340;51.402;0.016;2023-06-22T02:36:26;10.25;;;6.38;;
44774;SDS011;31340;51.402;0.016;2023-06-22T02:38:58;13.88;;;7.93;;
44774;SDS011;31340;51.402;0.016;2023-06-22T02:41:30;14.25;;;7.28;;
44774;SDS011;31340;51.402;0.016;2023-06-22T02:43:57;11.65;;;6.38;;
44774;SDS011;31340;51.402;0.016;2023-06-22T02:46:25;11.20;;;6.88;;
44774;SDS011;31340;51.402;0.016;2023-06-22T02:48:54;13.50;;;6.93;;
44774;SDS011;31340;51.402;0.016;2023-06-22T02:51:21;13.15;;;6.50;;
44774;SDS011;31340;51.402;0.016;2023-06-22T02:53:50;12.57;;;6.45;;
44774;SDS011;31340;51.402;0.016;2023-06-22T02:56:20;8.23;;;6.57;;
44774;SDS011;31340;51.402;0.016;2023-06-22T02:58:57;10.98;;;6.78;;
44774;SDS011;31340;51.402;0.016;2023-06-22T03:01:33;13.13;;;6.75;;
44774;SDS011;31340;51.402;0.016;2023-06-22T03:04:21;11.38;;;7.15;;
44774;SDS011;31340;51.402;0.016;2023-06-22T03:06:49;9.95;;;7.55;;
44774;SDS011;31340;51.402;0.016;2023-06-22T03:09:20;14.07;;;7.40;;
44774;SDS011;31340;51.402;0.016;2023-06-22T03:11:47;11.82;;;6.88;;
44774;SDS011;31340;51.402;0.016;2023-06-22T03:14:16;15.13;;;7.70;;
44774;SDS011;31340;51.402;0.016;2023-06-22T03:16:44;11.85;;;7.03;;
44774;SDS011;31340;51.402;0.016;2023-06-22T03:19:12;12.23;;;6.35;;
44774;SDS011;31340;51.402;0.016;2023-06-22T03:21:40;9.85;;;6.45;;
44774;SDS011;31340;51.402;0.016;2023-06-22T03:24:08;15.05;;;7.40;;
44774;SDS011;31340;51.402;0.016;2023-06-22T03:26:36;8.98;;;6.55;;
44774;SDS011;31340;51.402;0.016;2023-06-22T03:29:04;10.38;;;6.65;;
44774;SDS011;31340;51.402;0.016;2023-06-22T03:31:34;11.85;;;7.13;;
44774;SDS011;31340;51.402;0.016;2023-06-22T03:34:02;9.30;;;5.93;;
44774;SDS011;31340;51.402;0.016;2023-06-22T03:36:29;8.93;;;6.55;;
44774;SDS011;31340;51.402;0.016;2023-06-22T03:38:57;10.63;;;6.50;;
44774;SDS011;31340;51.402;0.016;2023-06-22T03:41:26;9.80;;;7.28;;
44774;SDS011;31340;51.402;0.016;2023-06-22T03:43:53;9.25;;;6.70;;
44774;SDS011;31340;51.402;0.016;2023-06-22T03:46:21;11.43;;;7.00;;
44774;SDS011;31340;51.402;0.016;2023-06-22T03:48:49;12.77;;;6.82;;
44774;SDS011;31340;51.402;0.016;2023-06-22T03:51:17;12.13;;;7.28;;
44774;SDS011;31340;51.402;0.016;2023-06-22T03:53:44;12.43;;;7.25;;
44774;SDS011;31340;51.402;0.016;2023-06-22T03:56:12;13.48;;;7.78;;
44774;SDS011;31340;51.402;0.016;2023-06-22T03:58:39;13.25;;;7.90;;
44774;SDS011;31340;51.402;0.016;2023-06-22T04:01:10;11.35;;;7.75;;
44774;SDS011;31340;51.402;0.016;2023-06-22T04:03:38;12.63;;;6.50;;
44774;SDS011;31340;51.402;0.016;2023-06-22T04:06:07;10.35;;;7.18;;
44774;SDS011;31340;51.402;0.016;2023-06-22T04:08:34;14.93;;;8.18;;
44774;SDS011;31340;51.402;0.016;2023-06-22T04:11:02;13.32;;;7.05;;
44774;SDS011;31340;51.402;0.016;2023-06-22T04:13:30;12.55;;;8.13;;
44774;SDS011;31340;51.402;0.016;2023-06-22T04:15:58;10.02;;;7.75;;
44774;SDS011;31340;51.402;0.016;2023-06-22T04:18:25;12.98;;;7.68;;
44774;SDS011;31340;51.402;0.016;2023-06-22T04:20:53;16.20;;;8.10;;
44774;SDS011;31340;51.402;0.016;2023-06-22T04:23:20;10.38;;;7.68;;
44774;SDS011;31340;51.402;0.016;2023-06-22T04:25:48;13.18;;;7.70;;
44774;SDS011;31340;51.402;0.016;2023-06-22T04:28:16;13.68;;;8.25;;
44774;SDS011;31340;51.402;0.016;2023-06-22T04:30:44;12.73;;;8.20;;
44774;SDS011;31340;51.402;0.016;2023-06-22T04:33:15;11.88;;;8.02;;
44774;SDS011;31340;51.402;0.016;2023-06-22T04:35:46;16.02;;;8.05;;
44774;SDS011;31340;51.402;0.016;2023-06-22T04:38:13;14.50;;;7.78;;
44774;SDS011;31340;51.402;0.016;2023-06-22T04:40:41;11.68;;;7.57;;
44774;SDS011;31340;51.402;0.016;2023-06-22T04:43:09;12.70;;;8.15;;
44774;SDS011;31340;51.402;0.016;2023-06-22T04:45:37;14.48;;;7.97;;
44774;SDS011;31340;51.402;0.016;2023-06-22T04:48:05;14.15;;;7.47;;
44774;SDS011;31340;51.402;0.016;2023-06-22T04:50:33;13.02;;;8.68;;
44774;SDS011;31340;51.402;0.016;2023-06-22T04:53:01;10.38;;;7.43;;
44774;SDS011;31340;51.402;0.016;2023-06-22T04:55:32;13.65;;;7.35;;
44774;SDS011;31340;51.402;0.016;2023-06-22T04:58:00;13.98;;;8.23;;
44774;SDS011;31340;51.402;0.016;2023-06-22T05:00:32;12.35;;;8.13;;
44774;SDS011;31340;51.402;0.016;2023-06-22T05:03:03;18.83;;;7.60;;
44774;SDS011;31340;51.402;0.016;2023-06-22T05:05:46;13.48;;;8.27;;
44774;SDS011;31340;51.402;0.016;2023-06-22T05:08:14;11.90;;;7.80;;
44774;SDS011;31340;51.402;0.016;2023-06-22T05:10:42;14.45;;;7.95;;
44774;SDS011;31340;51.402;0.016;2023-06-22T05:13:29;14.73;;;8.35;;
44774;SDS011;31340;51.402;0.016;2023-06-22T05:15:57;13.95;;;8.77;;
44774;SDS011;31340;51.402;0.016;2023-06-22T05:18:31;11.90;;;7.90;;
44774;SDS011;31340;51.402;0.016;2023-06-22T05:21:00;20.05;;;8.63;;
44774;SDS011;31340;51.402;0.016;2023-06-22T05:23:27;12.70;;;7.55;;
44774;SDS011;31340;51.402;0.016;2023-06-22T05:25:55;13.55;;;7.90;;
44774;SDS011;31340;51.402;0.016;2023-06-22T05:28:25;14.98;;;8.32;;
44774;SDS011;31340;51.402;0.016;2023-06-22T05:30:53;9.50;;;7.88;;
44774;SDS011;31340;51.402;0.016;2023-06-22T05:33:20;14.98;;;7.28;;
44774;SDS011;31340;51.402;0.016;2023-06-22T05:35:48;13.30;;;8.23;;
44774;SDS011;31340;51.402;0.016;2023-06-22T05:38:15;12.15;;;8.15;;
44774;SDS011;31340;51.402;0.016;2023-06-22T05:40:43;13.85;;;7.60;;
44774;SDS011;31340;51.402;0.016;2023-06-22T05:43:11;18.67;;;9.55;;
44774;SDS011;31340;51.402;0.016;2023-06-22T05:45:39;17.25;;;8.80;;
44774;SDS011;31340;51.402;0.016;2023-06-22T05:48:06;15.75;;;8.23;;
44774;SDS011;31340;51.402;0.016;2023-06-22T05:50:35;11.57;;;8.00;;
44774;SDS011;31340;51.402;0.016;2023-06-22T05:53:03;15.48;;;8.35;;
44774;SDS011;31340;51.402;0.016;2023-06-22T05:55:31;13.35;;;8.65;;
44774;SDS011;31340;51.402;0.016;2023-06-22T05:58:01;14.65;;;9.02;;
44774;SDS011;31340;51.402;0.016;2023-06-22T06:00:30;14.82;;;8.35;;
44774;SDS011;31340;51.402;0.016;2023-06-22T06:02:58;18.52;;;8.50;;
44774;SDS011;31340;51.402;0.016;2023-06-22T06:05:30;16.60;;;8.35;;
44774;SDS011;31340;51.402;0.016;2023-06-22T06:08:03;10.98;;;7.10;;
44774;SDS011;31340;51.402;0.016;2023-06-22T06:10:32;12.60;;;7.63;;
44774;SDS011;31340;51.402;0.016;2023-06-22T06:13:00;14.05;;;8.43;;
44774;SDS011;31340;51.402;0.016;2023-06-22T06:15:34;14.35;;;8.38;;
44774;SDS011;31340;51.402;0.016;2023-06-22T06:18:02;12.88;;;7.78;;
44774;SDS011;31340;51.402;0.016;2023-06-22T06:20:32;13.48;;;7.93;;
44774;SDS011;31340;51.402;0.016;2023-06-22T06:23:00;14.77;;;8.90;;
44774;SDS011;31340;51.402;0.016;2023-06-22T06:25:28;16.98;;;8.98;;
44774;SDS011;31340;51.402;0.016;2023-06-22T06:27:56;15.82;;;8.25;;
44774;SDS011;31340;51.402;0.016;2023-06-22T06:30:23;17.30;;;9.27;;
44774;SDS011;31340;51.402;0.016;2023-06-22T06:32:51;12.50;;;8.00;;
44774;SDS011;31340;51.402;0.016;2023-06-22T06:35:19;12.20;;;7.53;;
44774;SDS011;31340;51.402;0.016;2023-06-22T06:37:47;12.63;;;7.75;;
44774;SDS011;31340;51.402;0.016;2023-06-22T06:40:16;12.32;;;8.32;;
44774;SDS011;31340;51.402;0.016;2023-06-22T06:42:46;10.68;;;8.35;;
44774;SDS011;31340;51.402;0.016;2023-06-22T06:45:17;15.40;;;7.90;;
44774;SDS011;31340;51.402;0.016;2023-06-22T06:47:52;16.33;;;8.95;;
44774;SDS011;31340;51.402;0.016;2023-06-22T06:50:20;12.57;;;9.07;;
44774;SDS011;31340;51.402;0.016;2023-06-22T06:52:47;18.33;;;9.52;;
44774;SDS011;31340;51.402;0.016;2023-06-22T06:55:17;15.68;;;7.95;;
44774;SDS011;31340;51.402;0.016;2023-06-22T06:57:46;12.88;;;8.18;;
44774;SDS011;31340;51.402;0.016;2023-06-22T07:00:15;15.00;;;8.35;;
44774;SDS011;31340;51.402;0.016;2023-06-22T07:02:43;12.27;;;8.43;;
44774;SDS011;31340;51.402;0.016;2023-06-22T07:05:12;16.83;;;8.07;;
44774;SDS011;31340;51.402;0.016;2023-06-22T07:07:40;11.93;;;8.35;;
44774;SDS011;31340;51.402;0.016;2023-06-22T07:10:09;14.30;;;8.98;;
44774;SDS011;31340;51.402;0.016;2023-06-22T07:12:37;14.27;;;8.80;;
44774;SDS011;31340;51.402;0.016;2023-06-22T07:15:05;17.05;;;9.25;;
44774;SDS011;31340;51.402;0.016;2023-06-22T07:17:38;16.02;;;9.52;;
44774;SDS011;31340;51.402;0.016;2023-06-22T07:20:08;12.48;;;8.50;;
44774;SDS011;31340;51.402;0.016;2023-06-22T07:22:39;11.00;;;8.20;;
44774;SDS011;31340;51.402;0.016;2023-06-22T07:25:08;13.70;;;9.15;;
44774;SDS011;31340;51.402;0.016;2023-06-22T07:27:37;15.98;;;9.18;;
44774;SDS011;31340;51.402;0.016;2023-06-22T07:30:07;18.80;;;10.45;;
44774;SDS011;31340;51.402;0.016;2023-06-22T07:32:35;17.25;;;9.18;;
44774;SDS011;31340;51.402;0.016;2023-06-22T07:35:03;20.02;;;10.27;;
44774;SDS011;31340;51.402;0.016;2023-06-22T07:37:32;17.77;;;9.25;;
44774;SDS011;31340;51.402;0.016;2023-06-22T07:40:01;17.60;;;9.10;;
44774;SDS011;31340;51.402;0.016;2023-06-22T07:42:31;13.82;;;9.07;;
44774;SDS011;31340;51.402;0.016;2023-06-22T07:45:01;15.57;;;8.68;;
44774;SDS011;31340;51.402;0.016;2023-06-22T07:47:35;15.93;;;8.13;;
44774;SDS011;31340;51.402;0.016;2023-06-22T07:50:03;18.90;;;8.55;;
44774;SDS011;31340;51.402;0.016;2023-06-22T07:52:32;17.67;;;9.02;;
44774;SDS011;31340;51.402;0.016;2023-06-22T07:55:00;16.00;;;9.73;;
44774;SDS011;31340;51.402;0.016;2023-06-22T07:57:29;15.73;;;8.57;;
44774;SDS011;31340;51.402;0.016;2023-06-22T08:00:03;12.75;;;7.95;;
44774;SDS011;31340;51.402;0.016;2023-06-22T08:02:45;17.00;;;9.23;;
44774;SDS011;31340;51.402;0.016;2023-06-22T08:05:14;11.73;;;7.78;;
44774;SDS011;31340;51.402;0.016;2023-06-22T08:07:45;14.45;;;8.70;;
44774;SDS011;31340;51.402;0.016;2023-06-22T08:10:15;11.95;;;7.82;;
44774;SDS011;31340;51.402;0.016;2023-06-22T08:12:42;16.60;;;9.18;;
44774;SDS011;31340;51.402;0.016;2023-06-22T08:15:10;14.48;;;8.05;;
44774;SDS011;31340;51.402;0.016;2023-06-22T08:17:38;12.73;;;8.27;;
44774;SDS011;31340;51.402;0.016;2023-06-22T08:20:07;15.95;;;7.80;;
44774;SDS011;31340;51.402;0.016;2023-06-22T08:22:41;12.93;;;7.93;;
44774;SDS011;31340;51.402;0.016;2023-06-22T08:25:09;12.45;;;8.18;;
44774;SDS011;31340;51.402;0.016;2023-06-22T08:27:37;14.43;;;7.68;;
44774;SDS011;31340;51.402;0.016;2023-06-22T08:30:06;12.48;;;7.57;;
44774;SDS011;31340;51.402;0.016;2023-06-22T08:32:35;14.90;;;8.02;;
44774;SDS011;31340;51.402;0.016;2023-06-22T08:35:02;10.75;;;6.97;;
44774;SDS011;31340;51.402;0.016;2023-06-22T08:37:30;14.23;;;7.57;;
44774;SDS011;31340;51.402;0.016;2023-06-22T08:39:59;13.15;;;6.90;;
44774;SDS011;31340;51.402;0.016;2023-06-22T08:42:28;10.52;;;6.30;;
44774;SDS011;31340;51.402;0.016;2023-06-22T08:44:56;10.57;;;6.70;;
44774;SDS011;31340;51.402;0.016;2023-06-22T08:47:23;11.20;;;7.30;;
44774;SDS011;31340;51.402;0.016;2023-06-22T08:49:51;11.23;;;7.47;;
44774;SDS011;31340;51.402;0.016;2023-06-22T08:52:19;10.63;;;7.28;;
44774;SDS011;31340;51.402;0.016;2023-06-22T08:54:47;16.35;;;8.70;;
44774;SDS011;31340;51.402;0.016;2023-06-22T08:57:15;13.07;;;7.53;;
44774;SDS011;31340;51.402;0.016;2023-06-22T08:59:43;15.43;;;8.10;;
44774;SDS011;31340;51.402;0.016;2023-06-22T09:02:11;13.68;;;6.97;;
44774;SDS011;31340;51.402;0.016;2023-06-22T09:04:38;12.98;;;7.47;;
44774;SDS011;31340;51.402;0.016;2023-06-22T09:07:06;12.13;;;7.60;;
44774;SDS011;31340;51.402;0.016;2023-06-22T09:09:34;10.32;;;7.00;;
44774;SDS011;31340;51.402;0.016;2023-06-22T09:12:02;13.40;;;7.00;;
44774;SDS011;31340;51.402;0.016;2023-06-22T09:14:30;13.45;;;7.10;;
44774;SDS011;31340;51.402;0.016;2023-06-22T09:16:57;10.27;;;6.82;;
44774;SDS011;31340;51.402;0.016;2023-06-22T09:19:25;11.18;;;5.88;;
44774;SDS011;31340;51.402;0.016;2023-06-22T09:21:53;9.25;;;5.95;;
44774;SDS011;31340;51.402;0.016;2023-06-22T09:24:21;14.25;;;7.10;;
44774;SDS011;31340;51.402;0.016;2023-06-22T09:26:48;11.10;;;6.03;;
44774;SDS011;31340;51.402;0.016;2023-06-22T09:29:17;14.95;;;6.53;;
44774;SDS011;31340;51.402;0.016;2023-06-22T09:31:45;9.00;;;5.65;;
44774;SDS011;31340;51.402;0.016;2023-06-22T09:34:12;9.32;;;5.60;;
44774;SDS011;31340;51.402;0.016;2023-06-22T09:36:41;10.32;;;6.53;;
44774;SDS011;31340;51.402;0.016;2023-06-22T09:39:08;10.20;;;5.90;;
44774;SDS011;31340;51.402;0.016;2023-06-22T09:41:36;10.02;;;5.43;;
44774;SDS011;31340;51.402;0.016;2023-06-22T09:44:04;12.05;;;6.13;;
44774;SDS011;31340;51.402;0.016;2023-06-22T09:46:31;9.20;;;5.32;;
44774;SDS011;31340;51.402;0.016;2023-06-22T09:48:59;9.32;;;5.43;;
44774;SDS011;31340;51.402;0.016;2023-06-22T09:51:27;12.15;;;6.15;;
44774;SDS011;31340;51.402;0.016;2023-06-22T09:53:55;8.25;;;5.70;;
44774;SDS011;31340;51.402;0.016;2023-06-22T09:56:22;11.88;;;6.38;;
44774;SDS011;31340;51.402;0.016;2023-06-22T09:58:50;8.95;;;6.00;;
44774;SDS011;31340;51.402;0.016;2023-06-22T10:01:22;10.68;;;5.88;;
44774;SDS011;31340;51.402;0.016;2023-06-22T10:03:52;10.93;;;5.93;;
44774;SDS011;31340;51.402;0.016;2023-06-22T10:06:23;8.45;;;5.60;;
44774;SDS011;31340;51.402;0.016;2023-06-22T10:08:51;8.38;;;5.70;;
44774;SDS011;31340;51.402;0.016;2023-06-22T10:11:19;12.07;;;6.10;;
44774;SDS011;31340;51.402;0.016;2023-06-22T10:13:46;13.18;;;4.82;;
44774;SDS011;31340;51.402;0.016;2023-06-22T10:16:14;15.75;;;5.82;;
44774;SDS011;31340;51.402;0.016;2023-06-22T10:18:41;13.23;;;5.32;;
44774;SDS011;31340;51.402;0.016;2023-06-22T10:21:09;13.30;;;5.47;;
44774;SDS011;31340;51.402;0.016;2023-06-22T10:23:36;9.93;;;6.38;;
44774;SDS011;31340;51.402;0.016;2023-06-22T10:26:04;8.45;;;5.38;;
44774;SDS011;31340;51.402;0.016;2023-06-22T10:28:31;9.88;;;5.95;;
44774;SDS011;31340;51.402;0.016;2023-06-22T10:30:59;10.80;;;5.85;;
44774;SDS011;31340;51.402;0.016;2023-06-22T10:33:26;8.85;;;5.10;;
44774;SDS011;31340;51.402;0.016;2023-06-22T10:35:54;5.20;;;4.05;;
44774;SDS011;31340;51.402;0.016;2023-06-22T10:38:22;12.63;;;4.90;;
44774;SDS011;31340;51.402;0.016;2023-06-22T10:40:49;6.57;;;4.18;;
44774;SDS011;31340;51.402;0.016;2023-06-22T10:43:17;11.80;;;4.82;;
44774;SDS011;31340;51.402;0.016;2023-06-22T10:45:44;8.07;;;5.13;;
44774;SDS011;31340;51.402;0.016;2023-06-22T10:48:12;6.13;;;4.00;;
44774;SDS011;31340;51.402;0.016;2023-06-22T10:50:39;6.88;;;4.90;;
44774;SDS011;31340;51.402;0.016;2023-06-22T10:53:07;5.43;;;4.40;;
44774;SDS011;31340;51.402;0.016;2023-06-22T10:55:34;9.35;;;4.38;;
44774;SDS011;31340;51.402;0.016;2023-06-22T10:58:22;6.20;;;3.47;;
44774;SDS011;31340;51.402;0.016;2023-06-22T11:00:49;5.88;;;3.90;;
44774;SDS011;31340;51.402;0.016;2023-06-22T11:03:17;7.90;;;4.05;;
44774;SDS011;31340;51.402;0.016;2023-06-22T11:05:44;4.10;;;3.65;;
44774;SDS011;31340;51.402;0.016;2023-06-22T11:08:15;10.15;;;4.45;;
44774;SDS011;31340;51.402;0.016;2023-06-22T11:10:43;4.95;;;3.80;;
44774;SDS011;31340;51.402;0.016;2023-06-22T11:13:10;5.45;;;4.15;;
44774;SDS011;31340;51.402;0.016;2023-06-22T11:15:38;6.20;;;4.15;;
44774;SDS011;31340;51.402;0.016;2023-06-22T11:18:06;9.15;;;4.38;;
44774;SDS011;31340;51.402;0.016;2023-06-22T11:20:34;7.40;;;4.68;;
44774;SDS011;31340;51.402;0.016;2023-06-22T11:23:06;8.00;;;5.47;;
44774;SDS011;31340;51.402;0.016;2023-06-22T11:25:34;12.35;;;4.40;;
44774;SDS011;31340;51.402;0.016;2023-06-22T11:28:02;4.75;;;3.75;;
44774;SDS011;31340;51.402;0.016;2023-06-22T11:30:30;8.85;;;4.20;;
44774;SDS011;31340;51.402;0.016;2023-06-22T11:32:58;7.63;;;4.85;;
44774;SDS011;31340;51.402;0.016;2023-06-22T11:35:26;7.95;;;4.45;;
44774;SDS011;31340;51.402;0.016;2023-06-22T11:37:54;6.25;;;4.18;;
44774;SDS011;31340;51.402;0.016;2023-06-22T11:40:23;9.40;;;4.60;;
44774;SDS011;31340;51.402;0.016;2023-06-22T11:42:50;8.50;;;4.03;;
44774;SDS011;31340;51.402;0.016;2023-06-22T11:45:19;5.72;;;3.88;;
44774;SDS011;31340;51.402;0.016;2023-06-22T11:47:47;10.43;;;4.43;;
44774;SDS011;31340;51.402;0.016;2023-06-22T11:50:15;4.65;;;4.10;;
44774;SDS011;31340;51.402;0.016;2023-06-22T11:52:42;9.45;;;4.28;;
44774;SDS011;31340;51.402;0.016;2023-06-22T11:55:10;6.03;;;4.13;;
44774;SDS011;31340;51.402;0.016;2023-06-22T11:57:38;8.30;;;3.78;;
44774;SDS011;31340;51.402;0.016;2023-06-22T12:00:19;5.45;;;4.20;;
44774;SDS011;31340;51.402;0.016;2023-06-22T12:02:47;4.47;;;3.92;;
44774;SDS011;31340;51.402;0.016;2023-06-22T12:05:15;10.15;;;3.95;;
44774;SDS011;31340;51.402;0.016;2023-06-22T12:07:43;5.55;;;3.67;;
44774;SDS011;31340;51.402;0.016;2023-06-22T12:10:11;6.80;;;4.22;;
44774;SDS011;31340;51.402;0.016;2023-06-22T12:12:39;5.78;;;3.88;;
44774;SDS011;31340;51.402;0.016;2023-06-22T12:15:06;7.15;;;3.70;;
44774;SDS011;31340;51.402;0.016;2023-06-22T12:17:36;5.07;;;4.00;;
44774;SDS011;31340;51.402;0.016;2023-06-22T12:20:04;6.22;;;4.05;;
44774;SDS011;31340;51.402;0.016;2023-06-22T12:22:33;6.32;;;4.10;;
44774;SDS011;31340;51.402;0.016;2023-06-22T12:25:01;6.97;;;3.75;;
44774;SDS011;31340;51.402;0.016;2023-06-22T12:27:28;8.70;;;3.90;;
44774;SDS011;31340;51.402;0.016;2023-06-22T12:29:57;5.55;;;4.07;;
44774;SDS011;31340;51.402;0.016;2023-06-22T12:32:25;5.30;;;3.42;;
44774;SDS011;31340;51.402;0.016;2023-06-22T12:34:53;7.78;;;5.45;;
44774;SDS011;31340;51.402;0.016;2023-06-22T12:37:21;6.65;;;4.28;;
44774;SDS011;31340;51.402;0.016;2023-06-22T12:39:49;9.25;;;3.80;;
44774;SDS011;31340;51.402;0.016;2023-06-22T12:42:16;3.90;;;3.35;;
44774;SDS011;31340;51.402;0.016;2023-06-22T12:44:44;9.95;;;3.50;;
44774;SDS011;31340;51.402;0.016;2023-06-22T12:47:12;8.40;;;4.13;;
44774;SDS011;31340;51.402;0.016;2023-06-22T12:49:40;5.07;;;3.17;;
44774;SDS011;31340;51.402;0.016;2023-06-22T12:52:11;5.88;;;3.83;;
44774;SDS011;31340;51.402;0.016;2023-06-22T12:54:38;7.03;;;3.53;;
44774;SDS011;31340;51.402;0.016;2023-06-22T12:57:21;4.30;;;3.30;;
44774;SDS011;31340;51.402;0.016;2023-06-22T12:59:49;7.45;;;3.80;;
44774;SDS011;31340;51.402;0.016;2023-06-22T13:02:17;5.78;;;3.40;;
44774;SDS011;31340;51.402;0.016;2023-06-22T13:04:44;5.78;;;3.13;;
44774;SDS011;31340;51.402;0.016;2023-06-22T13:07:13;7.82;;;4.40;;
44774;SDS011;31340;51.402;0.016;2023-06-22T13:09:50;5.57;;;3.65;;
44774;SDS011;31340;51.402;0.016;2023-06-22T13:12:21;6.72;;;3.42;;
44774;SDS011;31340;51.402;0.016;2023-06-22T13:14:48;7.50;;;3.28;;
44774;SDS011;31340;51.402;0.016;2023-06-22T13:17:16;6.00;;;3.60;;
44774;SDS011;31340;51.402;0.016;2023-06-22T13:19:44;5.80;;;3.28;;
44774;SDS011;31340;51.402;0.016;2023-06-22T13:25:00;7.82;;;4.45;;
44774;SDS011;31340;51.402;0.016;2023-06-22T13:27:28;5.30;;;3.63;;
44774;SDS011;31340;51.402;0.016;2023-06-22T13:29:56;5.07;;;3.05;;
44774;SDS011;31340;51.402;0.016;2023-06-22T13:32:24;5.95;;;3.55;;
44774;SDS011;31340;51.402;0.016;2023-06-22T13:34:52;5.75;;;3.83;;
44774;SDS011;31340;51.402;0.016;2023-06-22T13:39:49;4.18;;;2.92;;
44774;SDS011;31340;51.402;0.016;2023-06-22T13:42:16;4.22;;;3.25;;
44774;SDS011;31340;51.402;0.016;2023-06-22T13:44:44;5.22;;;3.42;;
44774;SDS011;31340;51.402;0.016;2023-06-22T13:47:12;7.40;;;3.63;;
44774;SDS011;31340;51.402;0.016;2023-06-22T13:49:40;6.70;;;3.47;;
44774;SDS011;31340;51.402;0.016;2023-06-22T13:52:08;6.50;;;3.13;;
44774;SDS011;31340;51.402;0.016;2023-06-22T13:54:37;13.43;;;4.63;;
44774;SDS011;31340;51.402;0.016;2023-06-22T13:57:04;6.82;;;3.65;;
44774;SDS011;31340;51.402;0.016;2023-06-22T13:59:33;11.30;;;4.25;;
44774;SDS011;31340;51.402;0.016;2023-06-22T14:02:01;4.85;;;3.50;;
44774;SDS011;31340;51.402;0.016;2023-06-22T14:04:29;5.32;;;3.08;;
44774;SDS011;31340;51.402;0.016;2023-06-22T14:06:57;4.55;;;3.00;;
44774;SDS011;31340;51.402;0.016;2023-06-22T14:09:25;7.00;;;3.70;;
44774;SDS011;31340;51.402;0.016;2023-06-22T14:11:53;3.65;;;3.15;;
44774;SDS011;31340;51.402;0.016;2023-06-22T14:14:21;5.28;;;3.10;;
44774;SDS011;31340;51.402;0.016;2023-06-22T14:16:49;3.50;;;2.80;;
44774;SDS011;31340;51.402;0.016;2023-06-22T14:19:17;7.93;;;3.20;;
44774;SDS011;31340;51.402;0.016;2023-06-22T14:21:45;6.70;;;2.92;;
44774;SDS011;31340;51.402;0.016;2023-06-22T14:24:13;4.18;;;2.88;;
44774;SDS011;31340;51.402;0.016;2023-06-22T14:26:40;5.00;;;2.55;;
44774;SDS011;31340;51.402;0.016;2023-06-22T14:29:08;4.93;;;3.00;;
44774;SDS011;31340;51.402;0.016;2023-06-22T14:31:36;4.25;;;2.80;;
44774;SDS011;31340;51.402;0.016;2023-06-22T14:34:04;5.43;;;3.30;;
44774;SDS011;31340;51.402;0.016;2023-06-22T14:36:32;5.88;;;3.00;;
44774;SDS011;31340;51.402;0.016;2023-06-22T14:39:00;4.60;;;2.80;;
44774;SDS011;31340;51.402;0.016;2023-06-22T14:41:29;3.72;;;3.35;;
44774;SDS011;31340;51.402;0.016;2023-06-22T14:43:57;4.65;;;3.10;;
44774;SDS011;31340;51.402;0.016;2023-06-22T14:46:25;5.20;;;3.00;;
44774;SDS011;31340;51.402;0.016;2023-06-22T14:48:53;5.15;;;3.20;;
44774;SDS011;31340;51.402;0.016;2023-06-22T14:51:20;3.25;;;2.85;;
44774;SDS011;31340;51.402;0.016;2023-06-22T14:53:48;5.28;;;3.38;;